Terminal Aerodrome Forecast
Issued by NWS Wilmington, OH

Current Version | Previous Version | Graphics & Text | Print | Product List | Glossary On
Versions: 1 2 3 4 5 6 7 8 9 10 11 12 13 14 15 16 17 18 19 20 21 22 23 24 25 26
435
FTUS41 KILN 011559 AAB
TAFDAY
TAF AMD
KDAY 011559Z 0116/0212 22006KT P6SM BKN035
      TEMPO 0116/0117 BKN022
     FM011800 27005KT P6SM VCSH SCT025 BKN040
      TEMPO 0118/0121 -SHRA
     FM012200 VRB03KT P6SM SCT050 BKN080
     FM020100 VRB03KT P6SM VCSH BKN040
      TEMPO 0203/0207 -SHRA
     FM021000 33005KT P6SM BKN025=

USA.gov is the U.S. government's official web portal to all federal, state and local government web resources and services.